Zarautz, Spain
Current Conditions -  °F | °C
As of 8:00 PM on Tuesday 21 Oct 2014 (Local Time) from LESO Reporting Station
Broken Clouds Broken Clouds  
Wind Chill: 68°   Ceiling: 4000
Heat Index: 68°   Visibility: 6mi
Dew Point: 61°   Wind: 7mph
Humidity: 78%   Direction: 270°W
Pressure: 30.36"   Gusts: NA
Location:  43.28°N, 2.17°W
Report Text: LESO 211800Z 27006KT 200V350 9999 SCT027 BKN040 20/16 Q1028
Loading
Personal Weather Stations






























Interactive Weather Map
Tropical Storm Tracking
New forecast layout! Learn more

10-Day Weather Forecast

Advertisements
Track Severe Weather on mobile